Gulden Leeuw — PCBH — position and weather

sailwx.info

Track history (hours):
 
Tides and Currents Weather Stations Pressure Air Temp Water Temp Dewpoint Dewpoint Depression Visibility Wind Speed Wind Dir Waves Ship Positions

Gulden Leeuw

Last reported at 2017-Jun-23 05:00 UTC. Time now 2017-Jul-28 06:37 UTC.
Position N 42°45' W 069°24'.
Warning: this ship's position is 35 days out of date.

Length 57 m; draft 4.2 m.

Type: Sailing vessel. MMSI: 246709000.

Date/timePositionNaut miles runAvg speedWind from/ knotsBaromVisibWave heightAir tempDewpointWater temp
2017-Jun-23 05:00N 42°45' W 069°24'8 5.9
2017-Jun-23 03:40N 42°47' W 069°34'1 6.4
2017-Jun-23 03:30N 42°47' W 069°36'3 6.4
2017-Jun-23 03:00N 42°47' W 069°40'3 5.7
2017-Jun-23 02:30N 42°47' W 069°44'4 6.2
2017-Jun-23 01:56N 42°46' W 069°49'3 7.2
2017-Jun-23 01:30N 42°46' W 069°53'4 7.4
2017-Jun-23 01:00N 42°45' W 069°58'3 6.6
2017-Jun-23 00:30N 42°45' W 070°02'4 7.0
2017-Jun-23 00:00N 42°44' W 070°07'4 7.7
2017-Jun-22 23:30N 42°42' W 070°12'4 8.1
2017-Jun-22 23:00N 42°41' W 070°17'4 7.7
2017-Jun-22 22:30N 42°40' W 070°22'4 7.3
2017-Jun-22 22:00N 42°39' W 070°26'4 7.1
2017-Jun-22 21:30N 42°37' W 070°31'2 3.9
2017-Jun-22 21:00N 42°38' W 070°29'1 3.0
2017-Jun-22 20:30N 42°39' W 070°27'2 3.0
2017-Jun-22 20:00N 42°39' W 070°25'2 3.2
2017-Jun-22 19:30N 42°40' W 070°23'1 1.9
2017-Jun-22 19:00N 42°40' W 070°24'1 2.4
2017-Jun-22 18:30N 42°39' W 070°25'1 2.3
2017-Jun-22 18:00N 42°38' W 070°26'0 1.0
2017-Jun-22 17:30N 42°38' W 070°27'1 1.4
2017-Jun-22 17:00N 42°37' W 070°28'4 7.5
2017-Jun-22 16:30N 42°35' W 070°32'4 7.6
2017-Jun-22 16:00N 42°33' W 070°36'4 7.7
2017-Jun-22 15:30N 42°30' W 070°40'4 7.7
2017-Jun-22 15:00N 42°28' W 070°44'4 7.8
2017-Jun-22 14:30N 42°25' W 070°48'8 7.6
2017-Jun-22 13:30N 42°21' W 070°56'3 5.2
2017-Jun-22 13:00N 42°20' W 070°60'3 5.1
2017-Jun-22 12:30N 42°21' W 071°03'0 0.1
2017-Jun-22 11:59N 42°21' W 071°03'0 0.0
2017-Jun-22 11:29N 42°21' W 071°03'0 0.0
2017-Jun-22 10:59N 42°21' W 071°03'0 0.0
2017-Jun-22 10:29N 42°21' W 071°03'0 0.0
2017-Jun-22 09:59N 42°21' W 071°03'0 0.0
2017-Jun-22 09:29N 42°21' W 071°03'0 0.0
2017-Jun-22 08:59N 42°21' W 071°03'0 0.0
2017-Jun-22 08:29N 42°21' W 071°03'0 0.0
2017-Jun-22 07:59N 42°21' W 071°03'0 0.0
2017-Jun-22 07:29N 42°21' W 071°03'0 0.0
2017-Jun-22 06:59N 42°21' W 071°03'0 0.0
2017-Jun-22 06:29N 42°21' W 071°03'0 0.0
2017-Jun-22 05:59N 42°21' W 071°03'0 0.0
2017-Jun-22 05:29N 42°21' W 071°03'0 0.0
2017-Jun-22 04:59N 42°21' W 071°03'0 0.0
2017-Jun-22 04:29N 42°21' W 071°03'0 0.0
2017-Jun-22 03:56N 42°21' W 071°03'0 0.0
2017-Jun-22 03:29N 42°21' W 071°03'0 0.0
2017-Jun-22 02:59N 42°21' W 071°03'0 0.0
2017-Jun-22 02:29N 42°21' W 071°03'0 0.0
2017-Jun-22 01:59N 42°21' W 071°03'0 0.0
2017-Jun-22 01:26N 42°21' W 071°03'0 0.0
2017-Jun-22 00:59N 42°21' W 071°03'0 0.0
2017-Jun-22 00:29N 42°21' W 071°03'0 0.0
2017-Jun-21 23:59N 42°21' W 071°03'0 0.0
2017-Jun-21 23:29N 42°21' W 071°03'0 0.0
2017-Jun-21 22:56N 42°21' W 071°03'0 0.0
2017-Jun-21 22:29N 42°21' W 071°03'0 0.0
2017-Jun-21 21:59N 42°21' W 071°03'0 0.0
2017-Jun-21 21:29N 42°21' W 071°03'0 0.0
2017-Jun-21 20:59N 42°21' W 071°03'0 0.0
2017-Jun-21 20:29N 42°21' W 071°03'0 0.0
2017-Jun-21 19:59N 42°21' W 071°03'0 0.0
2017-Jun-21 19:29N 42°21' W 071°03'0 0.0
2017-Jun-21 18:59N 42°21' W 071°03'0 0.0
2017-Jun-21 18:29N 42°21' W 071°03'0 0.0
2017-Jun-21 17:59N 42°21' W 071°03'0 0.0
2017-Jun-21 17:29N 42°21' W 071°03'0 0.0
2017-Jun-21 16:59N 42°21' W 071°03'0 0.0
2017-Jun-21 16:29N 42°21' W 071°03'0 0.0
2017-Jun-21 15:59N 42°21' W 071°03'0 0.0
2017-Jun-21 15:29N 42°21' W 071°03'0 0.0
2017-Jun-21 14:59N 42°21' W 071°03'0 0.0
2017-Jun-21 14:29N 42°21' W 071°03'0 0.0
2017-Jun-21 13:29N 42°21' W 071°03'0 0.0
2017-Jun-21 12:59N 42°21' W 071°03'0 0.0
2017-Jun-21 12:29N 42°21' W 071°03'0 0.0
2017-Jun-21 11:59N 42°21' W 071°03'0 0.0
2017-Jun-21 11:29N 42°21' W 071°03'0 0.0
2017-Jun-21 10:59N 42°21' W 071°03'0 0.0
2017-Jun-21 10:29N 42°21' W 071°03'0 0.0
2017-Jun-21 09:59N 42°21' W 071°03'0 0.0
2017-Jun-21 09:29N 42°21' W 071°03'0 0.0
2017-Jun-21 08:59N 42°21' W 071°03'0 0.0
2017-Jun-21 08:26N 42°21' W 071°03'0 0.0
2017-Jun-21 07:59N 42°21' W 071°03'0 0.0
2017-Jun-21 07:29N 42°21' W 071°03'0 0.0
2017-Jun-21 06:59N 42°21' W 071°03'0 0.0
2017-Jun-21 06:29N 42°21' W 071°03'0 0.0
2017-Jun-21 05:59N 42°21' W 071°03'0 0.0
2017-Jun-21 05:29N 42°21' W 071°03'0 0.0
2017-Jun-21 04:59N 42°21' W 071°03'0 0.0
2017-Jun-21 04:29N 42°21' W 071°03'0 0.0
2017-Jun-21 03:59N 42°21' W 071°03'0 0.0
2017-Jun-21 03:29N 42°21' W 071°03'0 0.0
2017-Jun-21 02:59N 42°21' W 071°03'0 0.0
2017-Jun-21 02:29N 42°21' W 071°03'0 0.0
2017-Jun-21 01:59N 42°21' W 071°03'0 0.0
2017-Jun-21 01:29N 42°21' W 071°03'0 0.0
2017-Jun-21 00:59N 42°21' W 071°03'0 0.0
2017-Jun-21 00:29N 42°21' W 071°03'0 0.0
2017-Jun-20 23:59N 42°21' W 071°03'0 0.0
2017-Jun-20 23:29N 42°21' W 071°03'0 0.0
2017-Jun-20 22:59N 42°21' W 071°03'0 0.0
2017-Jun-20 22:29N 42°21' W 071°03'0 0.0
2017-Jun-20 21:59N 42°21' W 071°03'0 0.0
2017-Jun-20 21:29N 42°21' W 071°03'0 0.0
2017-Jun-20 20:59N 42°21' W 071°03'0 0.0
2017-Jun-20 20:29N 42°21' W 071°03'0 0.0
2017-Jun-20 19:59N 42°21' W 071°03'0 0.0
2017-Jun-20 19:29N 42°21' W 071°03'0 0.0
2017-Jun-20 18:59N 42°21' W 071°03'0 0.0
2017-Jun-20 18:29N 42°21' W 071°03'0 0.0
2017-Jun-20 17:59N 42°21' W 071°03'0 0.0
2017-Jun-20 17:29N 42°21' W 071°03'0 0.0
2017-Jun-20 16:59N 42°21' W 071°03'0 0.0
2017-Jun-20 16:29N 42°21' W 071°03'0 0.0
2017-Jun-20 15:59N 42°21' W 071°03'0 0.0
2017-Jun-20 15:29N 42°21' W 071°03'0 0.0
2017-Jun-20 14:59N 42°21' W 071°03'0 0.0
2017-Jun-20 14:29N 42°21' W 071°03'0 0.0
2017-Jun-20 13:29N 42°21' W 071°03'0 0.0
2017-Jun-20 12:59N 42°21' W 071°03'0 0.0
2017-Jun-20 12:29N 42°21' W 071°03'0 0.0
2017-Jun-20 11:59N 42°21' W 071°03'0 0.0
2017-Jun-20 11:29N 42°21' W 071°03'0 0.0
2017-Jun-20 10:59N 42°21' W 071°03'0 0.0
2017-Jun-20 10:29N 42°21' W 071°03'0 0.0
2017-Jun-20 09:59N 42°21' W 071°03'0 0.0
2017-Jun-20 09:29N 42°21' W 071°03'0 0.0
2017-Jun-20 08:59N 42°21' W 071°03'0 0.0
2017-Jun-20 08:29N 42°21' W 071°03'0 0.0
2017-Jun-20 07:59N 42°21' W 071°03'0 0.0
2017-Jun-20 07:29N 42°21' W 071°03'0 0.0
2017-Jun-20 06:59N 42°21' W 071°03'0 0.0
2017-Jun-20 06:29N 42°21' W 071°03'0 0.0
2017-Jun-20 05:59N 42°21' W 071°03'0 0.0
2017-Jun-20 05:29N 42°21' W 071°03'0 0.0
2017-Jun-20 04:59N 42°21' W 071°03'0 0.0
2017-Jun-20 04:29N 42°21' W 071°03'0 0.0
2017-Jun-20 03:59N 42°21' W 071°03'0 0.0
2017-Jun-20 03:26N 42°21' W 071°03'0 0.0
2017-Jun-20 02:59N 42°21' W 071°03'0 0.0
2017-Jun-20 02:29N 42°21' W 071°03'0 0.0
2017-Jun-20 01:59N 42°21' W 071°03'0 0.0
2017-Jun-20 01:29N 42°21' W 071°03'0 0.0
2017-Jun-20 00:59N 42°21' W 071°03'0 0.0
2017-Jun-20 00:29N 42°21' W 071°03'0 0.0
2017-Jun-19 23:59N 42°21' W 071°03'0 0.0
2017-Jun-19 23:29N 42°21' W 071°03'0 0.0
2017-Jun-19 22:59N 42°21' W 071°03'0 0.0
2017-Jun-19 22:29N 42°21' W 071°03'0 0.0
2017-Jun-19 21:59N 42°21' W 071°03'0 0.0
2017-Jun-19 21:29N 42°21' W 071°03'0 0.0
2017-Jun-19 20:59N 42°21' W 071°03'0 0.0
2017-Jun-19 20:29N 42°21' W 071°03'0 0.0
2017-Jun-19 19:59N 42°21' W 071°03'0 0.0
2017-Jun-19 19:29N 42°21' W 071°03'0 0.0
2017-Jun-19 18:59N 42°21' W 071°03'0 0.0
2017-Jun-19 18:29N 42°21' W 071°03'0 0.0
2017-Jun-19 17:59N 42°21' W 071°03'0 0.0
2017-Jun-19 17:29N 42°21' W 071°03'0 0.0
2017-Jun-19 16:59N 42°21' W 071°03'0 0.0
2017-Jun-19 16:29N 42°21' W 071°03'0 0.0
2017-Jun-19 15:59N 42°21' W 071°03'0 0.0
2017-Jun-19 15:29N 42°21' W 071°03'0 0.0
2017-Jun-19 14:59N 42°21' W 071°03'0 0.0
2017-Jun-19 14:29N 42°21' W 071°03'0 0.0
2017-Jun-19 13:29N 42°21' W 071°03'0 0.0
2017-Jun-19 12:59N 42°21' W 071°03'0 0.0
2017-Jun-19 12:29N 42°21' W 071°03'0 0.0
2017-Jun-19 11:59N 42°21' W 071°03'0 0.0
2017-Jun-19 11:29N 42°21' W 071°03'0 0.0
2017-Jun-19 10:59N 42°21' W 071°03'0 0.0
2017-Jun-19 10:29N 42°21' W 071°03'0 0.0
2017-Jun-19 09:59N 42°21' W 071°03'0 0.0
2017-Jun-19 09:29N 42°21' W 071°03'0 0.0
2017-Jun-19 08:59N 42°21' W 071°03'0 0.0
2017-Jun-19 08:29N 42°21' W 071°03'0 0.0
2017-Jun-19 07:59N 42°21' W 071°03'0 0.0
2017-Jun-19 07:29N 42°21' W 071°03'0 0.0
2017-Jun-19 06:59N 42°21' W 071°03'0 0.0
2017-Jun-19 06:29N 42°21' W 071°03'0 0.0
2017-Jun-19 05:59N 42°21' W 071°03'0 0.0
2017-Jun-19 05:29N 42°21' W 071°03'0 0.0
2017-Jun-19 04:59N 42°21' W 071°03'0 0.0
2017-Jun-19 04:29N 42°21' W 071°03'0 0.0
2017-Jun-19 03:59N 42°21' W 071°03'0 0.0
2017-Jun-19 03:29N 42°21' W 071°03'0 0.0
2017-Jun-19 02:59N 42°21' W 071°03'0 0.0
2017-Jun-19 02:29N 42°21' W 071°03'0 0.0
2017-Jun-19 01:56N 42°21' W 071°03'0 0.0
2017-Jun-19 01:29N 42°21' W 071°03'0 0.0
2017-Jun-19 00:59N 42°21' W 071°03'0 0.0
2017-Jun-19 00:29N 42°21' W 071°03'0 0.0
2017-Jun-18 23:59N 42°21' W 071°03'0 0.0
2017-Jun-18 23:29N 42°21' W 071°03'0 0.0
2017-Jun-18 22:59N 42°21' W 071°03'0 0.0
2017-Jun-18 22:29N 42°21' W 071°03'0 0.0
2017-Jun-18 21:59N 42°21' W 071°03'0 0.0
2017-Jun-18 21:29N 42°21' W 071°03'0 0.0
2017-Jun-18 20:59N 42°21' W 071°03'0 0.0
2017-Jun-18 20:29N 42°21' W 071°03'0 0.0
2017-Jun-18 19:59N 42°21' W 071°03'0 0.0
2017-Jun-18 19:29N 42°21' W 071°03'0 0.0
2017-Jun-18 18:59N 42°21' W 071°03'0 0.0
2017-Jun-18 18:29N 42°21' W 071°03'0 0.0
2017-Jun-18 17:59N 42°21' W 071°03'0 0.0
2017-Jun-18 17:29N 42°21' W 071°03'0 0.0
2017-Jun-18 16:59N 42°21' W 071°03'0 0.0
2017-Jun-18 16:29N 42°21' W 071°03'0 0.0
2017-Jun-18 15:59N 42°21' W 071°03'0 0.0
2017-Jun-18 15:29N 42°21' W 071°03'0 0.0
2017-Jun-18 14:59N 42°21' W 071°03'0 0.0
2017-Jun-18 13:59N 42°21' W 071°03'0 0.0
2017-Jun-18 13:29N 42°21' W 071°03'0 0.0
2017-Jun-18 12:59N 42°21' W 071°03'0 0.0
2017-Jun-18 12:29N 42°21' W 071°03'0 0.0
2017-Jun-18 11:59N 42°21' W 071°03'0 0.0
2017-Jun-18 11:29N 42°21' W 071°03'0 0.0
2017-Jun-18 10:59N 42°21' W 071°03'0 0.0
2017-Jun-18 10:29N 42°21' W 071°03'0 0.0
2017-Jun-18 09:59N 42°21' W 071°03'0 0.0
2017-Jun-18 09:29N 42°21' W 071°03'0 0.0
2017-Jun-18 08:59N 42°21' W 071°03'0 0.0
2017-Jun-18 08:29N 42°21' W 071°03'0 0.0
2017-Jun-18 07:59N 42°21' W 071°03'0 0.0
2017-Jun-18 07:29N 42°21' W 071°03'0 0.0
2017-Jun-18 06:59N 42°21' W 071°03'0 0.0
2017-Jun-18 06:29N 42°21' W 071°03'0 0.0
2017-Jun-18 05:59N 42°21' W 071°03'0 0.0
2017-Jun-18 05:29N 42°21' W 071°03'0 0.0
2017-Jun-18 04:59N 42°21' W 071°03'0 0.0
2017-Jun-18 04:29N 42°21' W 071°03'0 0.0
2017-Jun-18 03:59N 42°21' W 071°03'0 0.0
2017-Jun-18 03:29N 42°21' W 071°03'0 0.0
2017-Jun-18 02:59N 42°21' W 071°03'0 0.0
2017-Jun-18 02:29N 42°21' W 071°03'0 0.0
2017-Jun-18 01:59N 42°21' W 071°03'0 0.0
2017-Jun-18 01:26N 42°21' W 071°03'0 0.0
2017-Jun-18 00:59N 42°21' W 071°03'0 0.0
2017-Jun-18 00:29N 42°21' W 071°03'0 0.0
2017-Jun-17 23:59N 42°21' W 071°03'0 0.0
2017-Jun-17 23:29N 42°21' W 071°03'0 0.0
2017-Jun-17 22:59N 42°21' W 071°03'0 0.0
2017-Jun-17 22:29N 42°21' W 071°03'0 0.0
2017-Jun-17 21:59N 42°21' W 071°03'0 0.0
2017-Jun-17 21:29N 42°21' W 071°03'0 0.0
2017-Jun-17 20:59N 42°21' W 071°03'0 0.0
2017-Jun-17 20:29N 42°21' W 071°03'0 0.0
2017-Jun-17 19:59N 42°21' W 071°03'0 0.0
2017-Jun-17 19:29N 42°21' W 071°03'0 0.0
2017-Jun-17 18:59N 42°21' W 071°03'0 0.0
2017-Jun-17 18:29N 42°21' W 071°03'0 0.0
2017-Jun-17 18:00N 42°21' W 071°03'1 1.1
2017-Jun-17 17:30N 42°22' W 071°03'1 1.8
2017-Jun-17 17:00N 42°21' W 071°02'2 4.1
2017-Jun-17 16:30N 42°20' W 070°60'3 5.4
2017-Jun-17 16:00N 42°21' W 070°56'3 6.4
2017-Jun-17 15:30N 42°23' W 070°53'1 1.3
2017-Jun-17 15:00N 42°24' W 070°53'0 0.0
2017-Jun-17 14:00N 42°24' W 070°53'0 0.0
2017-Jun-17 13:30N 42°24' W 070°53'0 0.0
2017-Jun-17 13:00N 42°24' W 070°53'0 0.0
2017-Jun-17 12:30N 42°24' W 070°53'0 0.0
2017-Jun-17 12:00N 42°24' W 070°53'0 0.0
2017-Jun-17 11:31N 42°24' W 070°53'0 0.0
2017-Jun-17 11:00N 42°24' W 070°53'0 0.0
2017-Jun-17 10:30N 42°24' W 070°53'0 0.0
2017-Jun-17 10:00N 42°24' W 070°53'0 0.0
2017-Jun-17 09:30N 42°24' W 070°53'0 0.0
2017-Jun-17 09:00N 42°24' W 070°53'0 0.0
2017-Jun-17 08:30N 42°24' W 070°53'0 0.0
2017-Jun-17 08:00N 42°24' W 070°53'0 0.0
2017-Jun-17 07:30N 42°24' W 070°53'0 0.0
2017-Jun-17 07:00N 42°24' W 070°53'0 0.0
2017-Jun-17 06:30N 42°24' W 070°53'0 0.0
2017-Jun-17 06:01N 42°24' W 070°53'0 0.0
2017-Jun-17 05:30N 42°24' W 070°53'0 0.0
2017-Jun-17 05:00N 42°24' W 070°53'0 0.0
2017-Jun-17 04:30N 42°24' W 070°53'0 0.0
2017-Jun-17 04:00N 42°24' W 070°53'0 0.0
2017-Jun-17 03:30N 42°24' W 070°53'0 0.0
2017-Jun-17 03:00N 42°24' W 070°53'0 0.0
2017-Jun-17 02:30N 42°24' W 070°53'0 0.0
2017-Jun-17 02:00N 42°24' W 070°53'0 0.0
2017-Jun-17 01:30N 42°24' W 070°53'0 0.0
2017-Jun-17 00:57N 42°24' W 070°53'0 0.0
2017-Jun-17 00:27N 42°24' W 070°53'0 0.0
2017-Jun-17 00:00N 42°24' W 070°53'0 0.0
2017-Jun-16 23:30N 42°24' W 070°53'0 0.0
2017-Jun-16 23:00N 42°24' W 070°53'0 0.0
2017-Jun-16 22:30N 42°24' W 070°53'0 0.0
2017-Jun-16 22:00N 42°24' W 070°53'0 0.0
2017-Jun-16 21:30N 42°24' W 070°53'0 0.0
2017-Jun-16 21:00N 42°24' W 070°53'0 0.0
2017-Jun-16 20:30N 42°24' W 070°53'0 0.0
2017-Jun-16 20:00N 42°24' W 070°53'0 0.0
2017-Jun-16 19:30N 42°24' W 070°53'0 0.0
2017-Jun-16 19:00N 42°24' W 070°53'0 0.0
2017-Jun-16 18:30N 42°24' W 070°53'0 0.0
2017-Jun-16 18:00N 42°24' W 070°53'0 0.0
2017-Jun-16 17:30N 42°24' W 070°53'0 0.0
2017-Jun-16 17:00N 42°24' W 070°53'0 0.0
2017-Jun-16 16:30N 42°24' W 070°53'0 0.0
2017-Jun-16 16:00N 42°24' W 070°53'0 0.0
2017-Jun-16 15:30N 42°24' W 070°53'0 0.0
2017-Jun-16 15:00N 42°24' W 070°53'0 0.0
2017-Jun-16 14:00N 42°24' W 070°53'0 0.0
2017-Jun-16 13:30N 42°24' W 070°53'0 0.0
2017-Jun-16 13:00N 42°24' W 070°53'0 0.0
2017-Jun-16 12:30N 42°24' W 070°53'0 0.0
2017-Jun-16 12:00N 42°24' W 070°53'0 0.0
2017-Jun-16 11:30N 42°24' W 070°53'0 0.0
2017-Jun-16 11:00N 42°24' W 070°53'0 0.0
2017-Jun-16 10:30N 42°24' W 070°53'0 0.0
2017-Jun-16 10:00N 42°24' W 070°53'0 0.0
2017-Jun-16 09:30N 42°24' W 070°53'0 0.0
2017-Jun-16 08:57N 42°24' W 070°53'0 0.0
2017-Jun-16 08:30N 42°24' W 070°53'0 0.0
2017-Jun-16 08:00N 42°24' W 070°53'0 0.0
2017-Jun-16 07:30N 42°24' W 070°53'0 0.0
2017-Jun-16 07:00N 42°24' W 070°53'0 0.0
2017-Jun-16 06:30N 42°24' W 070°53'0 0.0
2017-Jun-16 06:00N 42°24' W 070°53'0 0.0
2017-Jun-16 05:30N 42°24' W 070°53'0 0.0
2017-Jun-16 05:00N 42°24' W 070°53'0 0.0
2017-Jun-16 04:30N 42°24' W 070°53'0 0.0
2017-Jun-16 04:00N 42°24' W 070°53'0 0.0
2017-Jun-16 03:30N 42°24' W 070°53'0 0.1
2017-Jun-16 03:00N 42°24' W 070°53'0 0.0
2017-Jun-16 02:30N 42°24' W 070°53'0 0.0
2017-Jun-16 02:00N 42°24' W 070°53'0 0.4
2017-Jun-16 01:31N 42°24' W 070°53'3 6.0
2017-Jun-16 01:00N 42°24' W 070°49'2 4.7
2017-Jun-16 00:30N 42°23' W 070°46'3 6.4
2017-Jun-16 00:00N 42°20' W 070°43'4 7.5
2017-Jun-15 23:30N 42°18' W 070°40'4 7.2
2017-Jun-15 23:00N 42°15' W 070°36'3 6.5
2017-Jun-15 22:30N 42°13' W 070°33'3 6.4
2017-Jun-15 22:00N 42°11' W 070°30'3 6.2
2017-Jun-15 21:30N 42°08' W 070°27'4 6.2
2017-Jun-15 20:50N 42°06' W 070°23'2 5.2
2017-Jun-15 20:30N 42°04' W 070°21'4 5.4
2017-Jun-15 19:45N 42°02' W 070°17'1 4.1
2017-Jun-15 19:29N 42°01' W 070°16'2 3.7
2017-Jun-15 18:57N 41°60' W 070°14'3 6.0
2017-Jun-15 18:30N 42°01' W 070°10'2 0.4
2017-Jun-15 12:55N 42°02' W 070°09'0 0.0
2017-Jun-15 12:22N 42°02' W 070°09'0 0.0
2017-Jun-15 11:52N 42°02' W 070°09'0 0.0
2017-Jun-15 11:28N 42°02' W 070°09'0 0.0
2017-Jun-15 10:58N 42°02' W 070°09'0 0.0
2017-Jun-15 10:28N 42°02' W 070°09'0 0.0
2017-Jun-15 09:34N 42°02' W 070°09'0 0.0
2017-Jun-15 09:19N 42°02' W 070°09'0 0.0
2017-Jun-15 08:58N 42°02' W 070°09'0 0.0
2017-Jun-15 08:19N 42°02' W 070°09'0 0.0
2017-Jun-15 07:58N 42°02' W 070°09'0 0.0
2017-Jun-15 07:22N 42°02' W 070°09'0 0.0
2017-Jun-15 06:55N 42°02' W 070°09'0 0.0
2017-Jun-15 06:01N 42°02' W 070°09'0 0.0
2017-Jun-15 05:58N 42°02' W 070°09'0 0.0
2017-Jun-15 05:28N 42°02' W 070°09'0 0.0
2017-Jun-15 04:58N 42°02' W 070°09'0 0.0
2017-Jun-15 04:25N 42°02' W 070°09'0 0.0
2017-Jun-15 03:58N 42°02' W 070°09'0 0.0
2017-Jun-15 03:28N 42°02' W 070°09'0 0.0
2017-Jun-15 02:52N 42°02' W 070°09'0 0.0
2017-Jun-15 02:28N 42°02' W 070°09'0 0.0
2017-Jun-15 01:58N 42°02' W 070°09'0 0.0
2017-Jun-15 01:25N 42°02' W 070°09'0 0.0
2017-Jun-15 00:58N 42°02' W 070°09'0 0.0
2017-Jun-15 00:25N 42°02' W 070°09'0 0.0
2017-Jun-14 23:58N 42°02' W 070°09'0 0.0
2017-Jun-14 23:28N 42°02' W 070°09'0 0.0
2017-Jun-14 22:58N 42°02' W 070°09'0 0.0
2017-Jun-14 22:28N 42°02' W 070°09'0 0.0
2017-Jun-14 21:58N 42°02' W 070°09'0 0.0
2017-Jun-14 21:30N 42°02' W 070°09'0 0.0
2017-Jun-14 21:01N 42°02' W 070°09'0 0.0
2017-Jun-14 20:30N 42°02' W 070°09'0 0.0
2017-Jun-14 20:01N 42°02' W 070°09'0 0.0
2017-Jun-14 19:30N 42°02' W 070°09'0 0.0
2017-Jun-14 19:01N 42°02' W 070°09'0 0.0
2017-Jun-14 18:30N 42°02' W 070°09'0 0.4
2017-Jun-14 18:00N 42°02' W 070°09'3 5.5
2017-Jun-14 17:30N 42°01' W 070°12'3 6.9
2017-Jun-14 17:01N 42°03' W 070°16'3 6.5
2017-Jun-14 16:30N 42°06' W 070°16'4 7.3
2017-Jun-14 16:00N 42°09' W 070°12'4 7.6
2017-Jun-14 15:30N 42°11' W 070°09'4 7.4
2017-Jun-14 15:00N 42°14' W 070°05'5 5.4
2017-Jun-14 14:00N 42°18' W 070°00'2 4.1
2017-Jun-14 13:30N 42°19' W 069°59'2 4.1
2017-Jun-14 13:01N 42°21' W 069°57'2 3.9
2017-Jun-14 12:30N 42°23' W 069°55'2 3.8
2017-Jun-14 12:00N 42°24' W 069°53'3 6.0
2017-Jun-14 11:30N 42°25' W 069°49'4 8.3
2017-Jun-14 11:00N 42°25' W 069°44'  
Track history (hours):
 
Tides and Currents Weather Stations Pressure Air Temp Water Temp Dewpoint Dewpoint Depression Visibility Wind Speed Wind Dir Waves Ship Positions

Gulden Leeuw

Last reported at 2017-Jun-23 05:00 UTC. Time now 2017-Jul-28 06:37 UTC.
Position N 42°45' W 069°24'.
Warning: this ship's position is 35 days out of date.

Length 57 m; draft 4.2 m.

Type: Sailing vessel. MMSI: 246709000.

Date/timePositionNaut miles runAvg speedWind from/ knotsBaromVisibWave heightAir tempDewpointWater temp
2017-Jun-23 05:00N 42°45' W 069°24'8 5.9
2017-Jun-23 03:40N 42°47' W 069°34'1 6.4
2017-Jun-23 03:30N 42°47' W 069°36'3 6.4
2017-Jun-23 03:00N 42°47' W 069°40'3 5.7
2017-Jun-23 02:30N 42°47' W 069°44'4 6.2
2017-Jun-23 01:56N 42°46' W 069°49'3 7.2
2017-Jun-23 01:30N 42°46' W 069°53'4 7.4
2017-Jun-23 01:00N 42°45' W 069°58'3 6.6
2017-Jun-23 00:30N 42°45' W 070°02'4 7.0
2017-Jun-23 00:00N 42°44' W 070°07'4 7.7
2017-Jun-22 23:30N 42°42' W 070°12'4 8.1
2017-Jun-22 23:00N 42°41' W 070°17'4 7.7
2017-Jun-22 22:30N 42°40' W 070°22'4 7.3
2017-Jun-22 22:00N 42°39' W 070°26'4 7.1
2017-Jun-22 21:30N 42°37' W 070°31'2 3.9
2017-Jun-22 21:00N 42°38' W 070°29'1 3.0
2017-Jun-22 20:30N 42°39' W 070°27'2 3.0
2017-Jun-22 20:00N 42°39' W 070°25'2 3.2
2017-Jun-22 19:30N 42°40' W 070°23'1 1.9
2017-Jun-22 19:00N 42°40' W 070°24'1 2.4
2017-Jun-22 18:30N 42°39' W 070°25'1 2.3
2017-Jun-22 18:00N 42°38' W 070°26'0 1.0
2017-Jun-22 17:30N 42°38' W 070°27'1 1.4
2017-Jun-22 17:00N 42°37' W 070°28'4 7.5
2017-Jun-22 16:30N 42°35' W 070°32'4 7.6
2017-Jun-22 16:00N 42°33' W 070°36'4 7.7
2017-Jun-22 15:30N 42°30' W 070°40'4 7.7
2017-Jun-22 15:00N 42°28' W 070°44'4 7.8
2017-Jun-22 14:30N 42°25' W 070°48'8 7.6
2017-Jun-22 13:30N 42°21' W 070°56'3 5.2
2017-Jun-22 13:00N 42°20' W 070°60'3 5.1
2017-Jun-22 12:30N 42°21' W 071°03'0 0.1
2017-Jun-22 11:59N 42°21' W 071°03'0 0.0
2017-Jun-22 11:29N 42°21' W 071°03'0 0.0
2017-Jun-22 10:59N 42°21' W 071°03'0 0.0
2017-Jun-22 10:29N 42°21' W 071°03'0 0.0
2017-Jun-22 09:59N 42°21' W 071°03'0 0.0
2017-Jun-22 09:29N 42°21' W 071°03'0 0.0
2017-Jun-22 08:59N 42°21' W 071°03'0 0.0
2017-Jun-22 08:29N 42°21' W 071°03'0 0.0
2017-Jun-22 07:59N 42°21' W 071°03'0 0.0
2017-Jun-22 07:29N 42°21' W 071°03'0 0.0
2017-Jun-22 06:59N 42°21' W 071°03'0 0.0
2017-Jun-22 06:29N 42°21' W 071°03'0 0.0
2017-Jun-22 05:59N 42°21' W 071°03'0 0.0
2017-Jun-22 05:29N 42°21' W 071°03'0 0.0
2017-Jun-22 04:59N 42°21' W 071°03'0 0.0
2017-Jun-22 04:29N 42°21' W 071°03'0 0.0
2017-Jun-22 03:56N 42°21' W 071°03'0 0.0
2017-Jun-22 03:29N 42°21' W 071°03'0 0.0
2017-Jun-22 02:59N 42°21' W 071°03'0 0.0
2017-Jun-22 02:29N 42°21' W 071°03'0 0.0
2017-Jun-22 01:59N 42°21' W 071°03'0 0.0
2017-Jun-22 01:26N 42°21' W 071°03'0 0.0
2017-Jun-22 00:59N 42°21' W 071°03'0 0.0
2017-Jun-22 00:29N 42°21' W 071°03'0 0.0
2017-Jun-21 23:59N 42°21' W 071°03'0 0.0
2017-Jun-21 23:29N 42°21' W 071°03'0 0.0
2017-Jun-21 22:56N 42°21' W 071°03'0 0.0
2017-Jun-21 22:29N 42°21' W 071°03'0 0.0
2017-Jun-21 21:59N 42°21' W 071°03'0 0.0
2017-Jun-21 21:29N 42°21' W 071°03'0 0.0
2017-Jun-21 20:59N 42°21' W 071°03'0 0.0
2017-Jun-21 20:29N 42°21' W 071°03'0 0.0
2017-Jun-21 19:59N 42°21' W 071°03'0 0.0
2017-Jun-21 19:29N 42°21' W 071°03'0 0.0
2017-Jun-21 18:59N 42°21' W 071°03'0 0.0
2017-Jun-21 18:29N 42°21' W 071°03'0 0.0
2017-Jun-21 17:59N 42°21' W 071°03'0 0.0
2017-Jun-21 17:29N 42°21' W 071°03'0 0.0
2017-Jun-21 16:59N 42°21' W 071°03'0 0.0
2017-Jun-21 16:29N 42°21' W 071°03'0 0.0
2017-Jun-21 15:59N 42°21' W 071°03'0 0.0
2017-Jun-21 15:29N 42°21' W 071°03'0 0.0
2017-Jun-21 14:59N 42°21' W 071°03'0 0.0
2017-Jun-21 14:29N 42°21' W 071°03'0 0.0
2017-Jun-21 13:29N 42°21' W 071°03'0 0.0
2017-Jun-21 12:59N 42°21' W 071°03'0 0.0
2017-Jun-21 12:29N 42°21' W 071°03'0 0.0
2017-Jun-21 11:59N 42°21' W 071°03'0 0.0
2017-Jun-21 11:29N 42°21' W 071°03'0 0.0
2017-Jun-21 10:59N 42°21' W 071°03'0 0.0
2017-Jun-21 10:29N 42°21' W 071°03'0 0.0
2017-Jun-21 09:59N 42°21' W 071°03'0 0.0
2017-Jun-21 09:29N 42°21' W 071°03'0 0.0
2017-Jun-21 08:59N 42°21' W 071°03'0 0.0
2017-Jun-21 08:26N 42°21' W 071°03'0 0.0
2017-Jun-21 07:59N 42°21' W 071°03'0 0.0
2017-Jun-21 07:29N 42°21' W 071°03'0 0.0
2017-Jun-21 06:59N 42°21' W 071°03'0 0.0
2017-Jun-21 06:29N 42°21' W 071°03'0 0.0
2017-Jun-21 05:59N 42°21' W 071°03'0 0.0
2017-Jun-21 05:29N 42°21' W 071°03'0 0.0
2017-Jun-21 04:59N 42°21' W 071°03'0 0.0
2017-Jun-21 04:29N 42°21' W 071°03'0 0.0
2017-Jun-21 03:59N 42°21' W 071°03'0 0.0
2017-Jun-21 03:29N 42°21' W 071°03'0 0.0
2017-Jun-21 02:59N 42°21' W 071°03'0 0.0
2017-Jun-21 02:29N 42°21' W 071°03'0 0.0
2017-Jun-21 01:59N 42°21' W 071°03'0 0.0
2017-Jun-21 01:29N 42°21' W 071°03'0 0.0
2017-Jun-21 00:59N 42°21' W 071°03'0 0.0
2017-Jun-21 00:29N 42°21' W 071°03'0 0.0
2017-Jun-20 23:59N 42°21' W 071°03'0 0.0
2017-Jun-20 23:29N 42°21' W 071°03'0 0.0
2017-Jun-20 22:59N 42°21' W 071°03'0 0.0
2017-Jun-20 22:29N 42°21' W 071°03'0 0.0
2017-Jun-20 21:59N 42°21' W 071°03'0 0.0
2017-Jun-20 21:29N 42°21' W 071°03'0 0.0
2017-Jun-20 20:59N 42°21' W 071°03'0 0.0
2017-Jun-20 20:29N 42°21' W 071°03'0 0.0
2017-Jun-20 19:59N 42°21' W 071°03'0 0.0
2017-Jun-20 19:29N 42°21' W 071°03'0 0.0
2017-Jun-20 18:59N 42°21' W 071°03'0 0.0
2017-Jun-20 18:29N 42°21' W 071°03'0 0.0
2017-Jun-20 17:59N 42°21' W 071°03'0 0.0
2017-Jun-20 17:29N 42°21' W 071°03'0 0.0
2017-Jun-20 16:59N 42°21' W 071°03'0 0.0
2017-Jun-20 16:29N 42°21' W 071°03'0 0.0
2017-Jun-20 15:59N 42°21' W 071°03'0 0.0
2017-Jun-20 15:29N 42°21' W 071°03'0 0.0
2017-Jun-20 14:59N 42°21' W 071°03'0 0.0
2017-Jun-20 14:29N 42°21' W 071°03'0 0.0
2017-Jun-20 13:29N 42°21' W 071°03'0 0.0
2017-Jun-20 12:59N 42°21' W 071°03'0 0.0
2017-Jun-20 12:29N 42°21' W 071°03'0 0.0
2017-Jun-20 11:59N 42°21' W 071°03'0 0.0
2017-Jun-20 11:29N 42°21' W 071°03'0 0.0
2017-Jun-20 10:59N 42°21' W 071°03'0 0.0
2017-Jun-20 10:29N 42°21' W 071°03'0 0.0
2017-Jun-20 09:59N 42°21' W 071°03'0 0.0
2017-Jun-20 09:29N 42°21' W 071°03'0 0.0
2017-Jun-20 08:59N 42°21' W 071°03'0 0.0
2017-Jun-20 08:29N 42°21' W 071°03'0 0.0
2017-Jun-20 07:59N 42°21' W 071°03'0 0.0
2017-Jun-20 07:29N 42°21' W 071°03'0 0.0
2017-Jun-20 06:59N 42°21' W 071°03'0 0.0
2017-Jun-20 06:29N 42°21' W 071°03'0 0.0
2017-Jun-20 05:59N 42°21' W 071°03'0 0.0
2017-Jun-20 05:29N 42°21' W 071°03'0 0.0
2017-Jun-20 04:59N 42°21' W 071°03'0 0.0
2017-Jun-20 04:29N 42°21' W 071°03'0 0.0
2017-Jun-20 03:59N 42°21' W 071°03'0 0.0
2017-Jun-20 03:26N 42°21' W 071°03'0 0.0
2017-Jun-20 02:59N 42°21' W 071°03'0 0.0
2017-Jun-20 02:29N 42°21' W 071°03'0 0.0
2017-Jun-20 01:59N 42°21' W 071°03'0 0.0
2017-Jun-20 01:29N 42°21' W 071°03'0 0.0
2017-Jun-20 00:59N 42°21' W 071°03'0 0.0
2017-Jun-20 00:29N 42°21' W 071°03'0 0.0
2017-Jun-19 23:59N 42°21' W 071°03'0 0.0
2017-Jun-19 23:29N 42°21' W 071°03'0 0.0
2017-Jun-19 22:59N 42°21' W 071°03'0 0.0
2017-Jun-19 22:29N 42°21' W 071°03'0 0.0
2017-Jun-19 21:59N 42°21' W 071°03'0 0.0
2017-Jun-19 21:29N 42°21' W 071°03'0 0.0
2017-Jun-19 20:59N 42°21' W 071°03'0 0.0
2017-Jun-19 20:29N 42°21' W 071°03'0 0.0
2017-Jun-19 19:59N 42°21' W 071°03'0 0.0
2017-Jun-19 19:29N 42°21' W 071°03'0 0.0
2017-Jun-19 18:59N 42°21' W 071°03'0 0.0
2017-Jun-19 18:29N 42°21' W 071°03'0 0.0
2017-Jun-19 17:59N 42°21' W 071°03'0 0.0
2017-Jun-19 17:29N 42°21' W 071°03'0 0.0
2017-Jun-19 16:59N 42°21' W 071°03'0 0.0
2017-Jun-19 16:29N 42°21' W 071°03'0 0.0
2017-Jun-19 15:59N 42°21' W 071°03'0 0.0
2017-Jun-19 15:29N 42°21' W 071°03'0 0.0
2017-Jun-19 14:59N 42°21' W 071°03'0 0.0
2017-Jun-19 14:29N 42°21' W 071°03'0 0.0
2017-Jun-19 13:29N 42°21' W 071°03'0 0.0
2017-Jun-19 12:59N 42°21' W 071°03'0 0.0
2017-Jun-19 12:29N 42°21' W 071°03'0 0.0
2017-Jun-19 11:59N 42°21' W 071°03'0 0.0
2017-Jun-19 11:29N 42°21' W 071°03'0 0.0
2017-Jun-19 10:59N 42°21' W 071°03'0 0.0
2017-Jun-19 10:29N 42°21' W 071°03'0 0.0
2017-Jun-19 09:59N 42°21' W 071°03'0 0.0
2017-Jun-19 09:29N 42°21' W 071°03'0 0.0
2017-Jun-19 08:59N 42°21' W 071°03'0 0.0
2017-Jun-19 08:29N 42°21' W 071°03'0 0.0
2017-Jun-19 07:59N 42°21' W 071°03'0 0.0
2017-Jun-19 07:29N 42°21' W 071°03'0 0.0
2017-Jun-19 06:59N 42°21' W 071°03'0 0.0
2017-Jun-19 06:29N 42°21' W 071°03'0 0.0
2017-Jun-19 05:59N 42°21' W 071°03'0 0.0
2017-Jun-19 05:29N 42°21' W 071°03'0 0.0
2017-Jun-19 04:59N 42°21' W 071°03'0 0.0
2017-Jun-19 04:29N 42°21' W 071°03'0 0.0
2017-Jun-19 03:59N 42°21' W 071°03'0 0.0
2017-Jun-19 03:29N 42°21' W 071°03'0 0.0
2017-Jun-19 02:59N 42°21' W 071°03'0 0.0
2017-Jun-19 02:29N 42°21' W 071°03'0 0.0
2017-Jun-19 01:56N 42°21' W 071°03'0 0.0
2017-Jun-19 01:29N 42°21' W 071°03'0 0.0
2017-Jun-19 00:59N 42°21' W 071°03'0 0.0
2017-Jun-19 00:29N 42°21' W 071°03'0 0.0
2017-Jun-18 23:59N 42°21' W 071°03'0 0.0
2017-Jun-18 23:29N 42°21' W 071°03'0 0.0
2017-Jun-18 22:59N 42°21' W 071°03'0 0.0
2017-Jun-18 22:29N 42°21' W 071°03'0 0.0
2017-Jun-18 21:59N 42°21' W 071°03'0 0.0
2017-Jun-18 21:29N 42°21' W 071°03'0 0.0
2017-Jun-18 20:59N 42°21' W 071°03'0 0.0
2017-Jun-18 20:29N 42°21' W 071°03'0 0.0
2017-Jun-18 19:59N 42°21' W 071°03'0 0.0
2017-Jun-18 19:29N 42°21' W 071°03'0 0.0
2017-Jun-18 18:59N 42°21' W 071°03'0 0.0
2017-Jun-18 18:29N 42°21' W 071°03'0 0.0
2017-Jun-18 17:59N 42°21' W 071°03'0 0.0
2017-Jun-18 17:29N 42°21' W 071°03'0 0.0
2017-Jun-18 16:59N 42°21' W 071°03'0 0.0
2017-Jun-18 16:29N 42°21' W 071°03'0 0.0
2017-Jun-18 15:59N 42°21' W 071°03'0 0.0
2017-Jun-18 15:29N 42°21' W 071°03'0 0.0
2017-Jun-18 14:59N 42°21' W 071°03'0 0.0
2017-Jun-18 13:59N 42°21' W 071°03'0 0.0
2017-Jun-18 13:29N 42°21' W 071°03'0 0.0
2017-Jun-18 12:59N 42°21' W 071°03'0 0.0
2017-Jun-18 12:29N 42°21' W 071°03'0 0.0
2017-Jun-18 11:59N 42°21' W 071°03'0 0.0
2017-Jun-18 11:29N 42°21' W 071°03'0 0.0
2017-Jun-18 10:59N 42°21' W 071°03'0 0.0
2017-Jun-18 10:29N 42°21' W 071°03'0 0.0
2017-Jun-18 09:59N 42°21' W 071°03'0 0.0
2017-Jun-18 09:29N 42°21' W 071°03'0 0.0
2017-Jun-18 08:59N 42°21' W 071°03'0 0.0
2017-Jun-18 08:29N 42°21' W 071°03'0 0.0
2017-Jun-18 07:59N 42°21' W 071°03'0 0.0
2017-Jun-18 07:29N 42°21' W 071°03'0 0.0
2017-Jun-18 06:59N 42°21' W 071°03'0 0.0
2017-Jun-18 06:29N 42°21' W 071°03'0 0.0
2017-Jun-18 05:59N 42°21' W 071°03'0 0.0
2017-Jun-18 05:29N 42°21' W 071°03'0 0.0
2017-Jun-18 04:59N 42°21' W 071°03'0 0.0
2017-Jun-18 04:29N 42°21' W 071°03'0 0.0
2017-Jun-18 03:59N 42°21' W 071°03'0 0.0
2017-Jun-18 03:29N 42°21' W 071°03'0 0.0
2017-Jun-18 02:59N 42°21' W 071°03'0 0.0
2017-Jun-18 02:29N 42°21' W 071°03'0 0.0
2017-Jun-18 01:59N 42°21' W 071°03'0 0.0
2017-Jun-18 01:26N 42°21' W 071°03'0 0.0
2017-Jun-18 00:59N 42°21' W 071°03'0 0.0
2017-Jun-18 00:29N 42°21' W 071°03'0 0.0
2017-Jun-17 23:59N 42°21' W 071°03'0 0.0
2017-Jun-17 23:29N 42°21' W 071°03'0 0.0
2017-Jun-17 22:59N 42°21' W 071°03'0 0.0
2017-Jun-17 22:29N 42°21' W 071°03'0 0.0
2017-Jun-17 21:59N 42°21' W 071°03'0 0.0
2017-Jun-17 21:29N 42°21' W 071°03'0 0.0
2017-Jun-17 20:59N 42°21' W 071°03'0 0.0
2017-Jun-17 20:29N 42°21' W 071°03'0 0.0
2017-Jun-17 19:59N 42°21' W 071°03'0 0.0
2017-Jun-17 19:29N 42°21' W 071°03'0 0.0
2017-Jun-17 18:59N 42°21' W 071°03'0 0.0
2017-Jun-17 18:29N 42°21' W 071°03'0 0.0
2017-Jun-17 18:00N 42°21' W 071°03'1 1.1
2017-Jun-17 17:30N 42°22' W 071°03'1 1.8
2017-Jun-17 17:00N 42°21' W 071°02'2 4.1
2017-Jun-17 16:30N 42°20' W 070°60'3 5.4
2017-Jun-17 16:00N 42°21' W 070°56'3 6.4
2017-Jun-17 15:30N 42°23' W 070°53'1 1.3
2017-Jun-17 15:00N 42°24' W 070°53'0 0.0
2017-Jun-17 14:00N 42°24' W 070°53'0 0.0
2017-Jun-17 13:30N 42°24' W 070°53'0 0.0
2017-Jun-17 13:00N 42°24' W 070°53'0 0.0
2017-Jun-17 12:30N 42°24' W 070°53'0 0.0
2017-Jun-17 12:00N 42°24' W 070°53'0 0.0
2017-Jun-17 11:31N 42°24' W 070°53'0 0.0
2017-Jun-17 11:00N 42°24' W 070°53'0 0.0
2017-Jun-17 10:30N 42°24' W 070°53'0 0.0
2017-Jun-17 10:00N 42°24' W 070°53'0 0.0
2017-Jun-17 09:30N 42°24' W 070°53'0 0.0
2017-Jun-17 09:00N 42°24' W 070°53'0 0.0
2017-Jun-17 08:30N 42°24' W 070°53'0 0.0
2017-Jun-17 08:00N 42°24' W 070°53'0 0.0
2017-Jun-17 07:30N 42°24' W 070°53'0 0.0
2017-Jun-17 07:00N 42°24' W 070°53'0 0.0
2017-Jun-17 06:30N 42°24' W 070°53'0 0.0
2017-Jun-17 06:01N 42°24' W 070°53'0 0.0
2017-Jun-17 05:30N 42°24' W 070°53'0 0.0
2017-Jun-17 05:00N 42°24' W 070°53'0 0.0
2017-Jun-17 04:30N 42°24' W 070°53'0 0.0
2017-Jun-17 04:00N 42°24' W 070°53'0 0.0
2017-Jun-17 03:30N 42°24' W 070°53'0 0.0
2017-Jun-17 03:00N 42°24' W 070°53'0 0.0
2017-Jun-17 02:30N 42°24' W 070°53'0 0.0
2017-Jun-17 02:00N 42°24' W 070°53'0 0.0
2017-Jun-17 01:30N 42°24' W 070°53'0 0.0
2017-Jun-17 00:57N 42°24' W 070°53'0 0.0
2017-Jun-17 00:27N 42°24' W 070°53'0 0.0
2017-Jun-17 00:00N 42°24' W 070°53'0 0.0
2017-Jun-16 23:30N 42°24' W 070°53'0 0.0
2017-Jun-16 23:00N 42°24' W 070°53'0 0.0
2017-Jun-16 22:30N 42°24' W 070°53'0 0.0
2017-Jun-16 22:00N 42°24' W 070°53'0 0.0
2017-Jun-16 21:30N 42°24' W 070°53'0 0.0
2017-Jun-16 21:00N 42°24' W 070°53'0 0.0
2017-Jun-16 20:30N 42°24' W 070°53'0 0.0
2017-Jun-16 20:00N 42°24' W 070°53'0 0.0
2017-Jun-16 19:30N 42°24' W 070°53'0 0.0
2017-Jun-16 19:00N 42°24' W 070°53'0 0.0
2017-Jun-16 18:30N 42°24' W 070°53'0 0.0
2017-Jun-16 18:00N 42°24' W 070°53'0 0.0
2017-Jun-16 17:30N 42°24' W 070°53'0 0.0
2017-Jun-16 17:00N 42°24' W 070°53'0 0.0
2017-Jun-16 16:30N 42°24' W 070°53'0 0.0
2017-Jun-16 16:00N 42°24' W 070°53'0 0.0
2017-Jun-16 15:30N 42°24' W 070°53'0 0.0
2017-Jun-16 15:00N 42°24' W 070°53'0 0.0
2017-Jun-16 14:00N 42°24' W 070°53'0 0.0
2017-Jun-16 13:30N 42°24' W 070°53'0 0.0
2017-Jun-16 13:00N 42°24' W 070°53'0 0.0
2017-Jun-16 12:30N 42°24' W 070°53'0 0.0
2017-Jun-16 12:00N 42°24' W 070°53'0 0.0
2017-Jun-16 11:30N 42°24' W 070°53'0 0.0
2017-Jun-16 11:00N 42°24' W 070°53'0 0.0
2017-Jun-16 10:30N 42°24' W 070°53'0 0.0
2017-Jun-16 10:00N 42°24' W 070°53'0 0.0
2017-Jun-16 09:30N 42°24' W 070°53'0 0.0
2017-Jun-16 08:57N 42°24' W 070°53'0 0.0
2017-Jun-16 08:30N 42°24' W 070°53'0 0.0
2017-Jun-16 08:00N 42°24' W 070°53'0 0.0
2017-Jun-16 07:30N 42°24' W 070°53'0 0.0
2017-Jun-16 07:00N 42°24' W 070°53'0 0.0
2017-Jun-16 06:30N 42°24' W 070°53'0 0.0
2017-Jun-16 06:00N 42°24' W 070°53'0 0.0
2017-Jun-16 05:30N 42°24' W 070°53'0 0.0
2017-Jun-16 05:00N 42°24' W 070°53'0 0.0
2017-Jun-16 04:30N 42°24' W 070°53'0 0.0
2017-Jun-16 04:00N 42°24' W 070°53'0 0.0
2017-Jun-16 03:30N 42°24' W 070°53'0 0.1
2017-Jun-16 03:00N 42°24' W 070°53'0 0.0
2017-Jun-16 02:30N 42°24' W 070°53'0 0.0
2017-Jun-16 02:00N 42°24' W 070°53'0 0.4
2017-Jun-16 01:31N 42°24' W 070°53'3 6.0
2017-Jun-16 01:00N 42°24' W 070°49'2 4.7
2017-Jun-16 00:30N 42°23' W 070°46'3 6.4
2017-Jun-16 00:00N 42°20' W 070°43'4 7.5
2017-Jun-15 23:30N 42°18' W 070°40'4 7.2
2017-Jun-15 23:00N 42°15' W 070°36'3 6.5
2017-Jun-15 22:30N 42°13' W 070°33'3 6.4
2017-Jun-15 22:00N 42°11' W 070°30'3 6.2
2017-Jun-15 21:30N 42°08' W 070°27'4 6.2
2017-Jun-15 20:50N 42°06' W 070°23'2 5.2
2017-Jun-15 20:30N 42°04' W 070°21'4 5.4
2017-Jun-15 19:45N 42°02' W 070°17'1 4.1
2017-Jun-15 19:29N 42°01' W 070°16'2 3.7
2017-Jun-15 18:57N 41°60' W 070°14'3 6.0
2017-Jun-15 18:30N 42°01' W 070°10'2 0.4
2017-Jun-15 12:55N 42°02' W 070°09'0 0.0
2017-Jun-15 12:22N 42°02' W 070°09'0 0.0
2017-Jun-15 11:52N 42°02' W 070°09'0 0.0
2017-Jun-15 11:28N 42°02' W 070°09'0 0.0
2017-Jun-15 10:58N 42°02' W 070°09'0 0.0
2017-Jun-15 10:28N 42°02' W 070°09'0 0.0
2017-Jun-15 09:34N 42°02' W 070°09'0 0.0
2017-Jun-15 09:19N 42°02' W 070°09'0 0.0
2017-Jun-15 08:58N 42°02' W 070°09'0 0.0
2017-Jun-15 08:19N 42°02' W 070°09'0 0.0
2017-Jun-15 07:58N 42°02' W 070°09'0 0.0
2017-Jun-15 07:22N 42°02' W 070°09'0 0.0
2017-Jun-15 06:55N 42°02' W 070°09'0 0.0
2017-Jun-15 06:01N 42°02' W 070°09'0 0.0
2017-Jun-15 05:58N 42°02' W 070°09'0 0.0
2017-Jun-15 05:28N 42°02' W 070°09'0 0.0
2017-Jun-15 04:58N 42°02' W 070°09'0 0.0
2017-Jun-15 04:25N 42°02' W 070°09'0 0.0
2017-Jun-15 03:58N 42°02' W 070°09'0 0.0
2017-Jun-15 03:28N 42°02' W 070°09'0 0.0
2017-Jun-15 02:52N 42°02' W 070°09'0 0.0
2017-Jun-15 02:28N 42°02' W 070°09'0 0.0
2017-Jun-15 01:58N 42°02' W 070°09'0 0.0
2017-Jun-15 01:25N 42°02' W 070°09'0 0.0
2017-Jun-15 00:58N 42°02' W 070°09'0 0.0
2017-Jun-15 00:25N 42°02' W 070°09'0 0.0
2017-Jun-14 23:58N 42°02' W 070°09'0 0.0
2017-Jun-14 23:28N 42°02' W 070°09'0 0.0
2017-Jun-14 22:58N 42°02' W 070°09'0 0.0
2017-Jun-14 22:28N 42°02' W 070°09'0 0.0
2017-Jun-14 21:58N 42°02' W 070°09'0 0.0
2017-Jun-14 21:30N 42°02' W 070°09'0 0.0
2017-Jun-14 21:01N 42°02' W 070°09'0 0.0
2017-Jun-14 20:30N 42°02' W 070°09'0 0.0
2017-Jun-14 20:01N 42°02' W 070°09'0 0.0
2017-Jun-14 19:30N 42°02' W 070°09'0 0.0
2017-Jun-14 19:01N 42°02' W 070°09'0 0.0
2017-Jun-14 18:30N 42°02' W 070°09'0 0.4
2017-Jun-14 18:00N 42°02' W 070°09'3 5.5
2017-Jun-14 17:30N 42°01' W 070°12'3 6.9
2017-Jun-14 17:01N 42°03' W 070°16'3 6.5
2017-Jun-14 16:30N 42°06' W 070°16'4 7.3
2017-Jun-14 16:00N 42°09' W 070°12'4 7.6
2017-Jun-14 15:30N 42°11' W 070°09'4 7.4
2017-Jun-14 15:00N 42°14' W 070°05'5 5.4
2017-Jun-14 14:00N 42°18' W 070°00'2 4.1
2017-Jun-14 13:30N 42°19' W 069°59'2 4.1
2017-Jun-14 13:01N 42°21' W 069°57'2 3.9
2017-Jun-14 12:30N 42°23' W 069°55'2 3.8
2017-Jun-14 12:00N 42°24' W 069°53'3 6.0
2017-Jun-14 11:30N 42°25' W 069°49'4 8.3
2017-Jun-14 11:00N 42°25' W 069°44'  

Dump ship's entire track history